메인 페이지
METAR-TAF:

METAR-TAF

공항 :

Zaqatala, 아제르바이잔

위도: 41-33-44N, 경도: 46-40-02E, 고도: 330m

현재 날씨관측

예보는 46분 전, 13:00시(UTC)에 발표되었습니다.
서남서8kt
온도 29°C
습도 43%
기압 1015 hPa
시정 10km 이상
고도 5000ft 상공 구름 보통, 적란운.
고도 10000ft 상공 구름 많음
시계 내 뇌우

METAR: UBBY 051300Z 25008KT 9999 VCTS SCT050CB BKN100 29/15 Q1015 R33/CLRD// NOSIG RMK MT OP

시각: 17:46 (13:46 UTC)

예보

예보는 55분 전, 12:51시(UTC)에 발표되었습니다.
예보 대상 시간: 05일 12시부터 05일 21시까지 (UTC)
여러 방향의 바람 4kt
시정 10km 이상
고도 4000ft 상공 구름 보통, 적란운.
고도 7000ft 상공 구름 많음
일시적
05일 13시부터 05일 17시까지 (UTC)
여러 방향의 바람 14kt
뇌우, 약한비

TAF: UBBY 051251Z 0512/0521 VRB04KT 9999 SCT040CB BKN070 TEMPO 0513/0517 VRB14KT -TSRA

4,000개 이상의 공항 관측 자료 및 예보 (METAR 및 TAF 보고).

지도상에서 검색 가능한 기상관측소가 노란 점과 빨간 점으로 표시되어 있습니다.

기상관측소 명을 보려면 표시 위로 마우스를 이동하세요.

날씨 관측과 예보를 보려면 클릭하세요.

지도 변경 : 확대하려면 엑스 표시가 있는 녹색 버튼, 축소하려면 빼기 표시가 있는 녹색 버튼, 다음 페이지의 지도를 보려면 녹색 화살표를 클릭하세요.


METAR-TAF: